DEECK VNLK-VNLK
Flight info
| Callsign | DEECK |
|---|---|
| Flight time | 0h 1m |
| Altitude | 15000 |
| Route | DCT |
| Aircraft | PC6/L-GS/L |
Departure
| Time | 2026-02-14 12:03 |
|---|---|
| Airport | Tenzing-Hillary Airport (VNLK) |
Arrival
| Time | 2026-02-14 12:05 |
|---|---|
| Airport | Tenzing-Hillary Airport (VNLK) |
| Time | Latitude | Longitude | Altitude | Speed | Heading |
|---|---|---|---|---|---|
| 2026-02-14 11:50 | 27.68750 | 86.73201 | 9404 ft | 0 kts | 39° |
| 2026-02-14 11:52 | 27.68741 | 86.73188 | 9404 ft | 2 kts | 64° |
| 2026-02-14 11:53 | 27.68739 | 86.73184 | 9404 ft | 2 kts | 43° |
| 2026-02-14 11:53 | 27.68761 | 86.73174 | 9405 ft | 0 kts | 325° |
| 2026-02-14 11:53 | 27.68762 | 86.73173 | 9405 ft | 0 kts | 325° |
| 2026-02-14 11:54 | 27.68767 | 86.73169 | 9404 ft | 5 kts | 319° |
| 2026-02-14 11:54 | 27.68752 | 86.73085 | 9385 ft | 31 kts | 240° |
| 2026-02-14 11:54 | 27.68464 | 86.72541 | 9251 ft | 107 kts | 237° |
| 2026-02-14 11:54 | 27.67984 | 86.71841 | 9350 ft | 125 kts | 231° |
| 2026-02-14 11:55 | 27.67346 | 86.71029 | 9303 ft | 141 kts | 227° |
| 2026-02-14 11:55 | 27.66622 | 86.70358 | 9331 ft | 134 kts | 206° |
| 2026-02-14 11:55 | 27.65702 | 86.70096 | 9285 ft | 138 kts | 194° |
| 2026-02-14 11:55 | 27.64787 | 86.69776 | 9341 ft | 136 kts | 200° |
| 2026-02-14 11:56 | 27.63961 | 86.69397 | 9212 ft | 126 kts | 205° |
| 2026-02-14 11:56 | 27.63115 | 86.69053 | 9044 ft | 128 kts | 194° |
| 2026-02-14 11:56 | 27.62244 | 86.68939 | 8894 ft | 133 kts | 185° |
| 2026-02-14 11:56 | 27.61283 | 86.68989 | 8955 ft | 133 kts | 168° |
| 2026-02-14 11:57 | 27.60620 | 86.70442 | 9241 ft | 124 kts | 48° |
| 2026-02-14 11:57 | 27.61420 | 86.70565 | 9118 ft | 136 kts | 337° |
| 2026-02-14 11:57 | 27.62286 | 86.70066 | 8752 ft | 132 kts | 336° |
| 2026-02-14 11:58 | 27.63103 | 86.69829 | 8642 ft | 117 kts | 348° |
| 2026-02-14 11:58 | 27.63906 | 86.69736 | 8616 ft | 114 kts | 358° |
| 2026-02-14 11:58 | 27.64687 | 86.69819 | 8694 ft | 115 kts | 6° |
| 2026-02-14 11:58 | 27.65507 | 86.69902 | 8916 ft | 119 kts | 4° |
| 2026-02-14 11:59 | 27.66315 | 86.70059 | 9086 ft | 115 kts | 10° |
| 2026-02-14 11:59 | 27.67053 | 86.70327 | 9136 ft | 104 kts | 22° |
| 2026-02-14 11:59 | 27.67572 | 86.70846 | 8983 ft | 99 kts | 55° |
| 2026-02-14 11:59 | 27.67925 | 86.71482 | 8925 ft | 93 kts | 56° |
| 2026-02-14 12:00 | 27.68252 | 86.72101 | 9104 ft | 92 kts | 56° |
| 2026-02-14 12:00 | 27.68552 | 86.72695 | 9210 ft | 81 kts | 57° |
| 2026-02-14 12:00 | 27.68737 | 86.73047 | 9363 ft | 20 kts | 60° |
| 2026-02-14 12:00 | 27.68784 | 86.73147 | 9403 ft | 7 kts | 61° |
| 2026-02-14 12:01 | 27.68748 | 86.73176 | 9405 ft | 0 kts | 352° |
| 2026-02-14 12:01 | 27.68771 | 86.73166 | 9404 ft | 11 kts | 311° |
| 2026-02-14 12:02 | 27.68704 | 86.72993 | 9332 ft | 60 kts | 237° |
| 2026-02-14 12:02 | 27.68387 | 86.72403 | 9270 ft | 95 kts | 234° |
| 2026-02-14 12:02 | 27.67772 | 86.71965 | 9263 ft | 121 kts | 198° |
| 2026-02-14 12:02 | 27.66907 | 86.71744 | 9275 ft | 130 kts | 194° |
| 2026-02-14 12:03 | 27.66122 | 86.71382 | 9479 ft | 112 kts | 225° |
| 2026-02-14 12:03 | 27.65865 | 86.70621 | 9637 ft | 103 kts | 275° |
| 2026-02-14 12:03 | 27.66215 | 86.69967 | 9827 ft | 101 kts | 330° |
| 2026-02-14 12:03 | 27.66912 | 86.70099 | 10013 ft | 117 kts | 35° |
| 2026-02-14 12:04 | 27.67438 | 86.70776 | 9851 ft | 109 kts | 50° |
| 2026-02-14 12:04 | 27.67884 | 86.71439 | 9572 ft | 105 kts | 52° |
| 2026-02-14 12:04 | 27.68263 | 86.72108 | 9424 ft | 98 kts | 57° |
| 2026-02-14 12:04 | 27.68580 | 86.72760 | 9218 ft | 86 kts | 53° |
| 2026-02-14 12:05 | 27.68750 | 86.73201 | 9404 ft | 0 kts | 39° |
| 2026-02-14 12:07 | 27.68761 | 86.73192 | 9405 ft | 6 kts | 297° |
| 2026-02-14 12:07 | 27.68761 | 86.73108 | 9397 ft | 19 kts | 244° |
| 2026-02-14 12:07 | 27.68544 | 86.72677 | 9202 ft | 103 kts | 239° |
| 2026-02-14 12:07 | 27.67975 | 86.72119 | 9166 ft | 126 kts | 201° |
| 2026-02-14 12:08 | 27.67050 | 86.71840 | 9105 ft | 141 kts | 199° |
| 2026-02-14 12:08 | 27.66234 | 86.71395 | 9332 ft | 118 kts | 227° |
| 2026-02-14 12:08 | 27.66065 | 86.70539 | 9437 ft | 114 kts | 285° |
| 2026-02-14 12:08 | 27.66605 | 86.70055 | 9641 ft | 110 kts | 3° |
| 2026-02-14 12:09 | 27.67870 | 86.71356 | 9321 ft | 110 kts | 59° |
| 2026-02-14 12:09 | 27.68229 | 86.72045 | 9252 ft | 97 kts | 57° |
| 2026-02-14 12:09 | 27.68545 | 86.72683 | 9223 ft | 88 kts | 55° |
| 2026-02-14 12:10 | 27.68632 | 86.72875 | 9261 ft | 5 kts | 41° |
| 2026-02-14 12:10 | 27.68750 | 86.73201 | 9261 ft | 0 kts | 39° |
| 2026-02-14 12:12 | 27.68769 | 86.73186 | 9405 ft | 8 kts | 292° |
| 2026-02-14 12:12 | 27.68748 | 86.73078 | 9381 ft | 35 kts | 242° |
| 2026-02-14 12:12 | 27.68459 | 86.72546 | 9235 ft | 100 kts | 235° |
| 2026-02-14 12:12 | 27.67797 | 86.72173 | 9259 ft | 126 kts | 195° |
| 2026-02-14 12:13 | 27.66071 | 86.71546 | 9628 ft | 121 kts | 221° |
| 2026-02-14 12:13 | 27.65752 | 86.70717 | 9840 ft | 118 kts | 275° |
| 2026-02-14 12:13 | 27.66199 | 86.70018 | 10117 ft | 113 kts | 333° |
| 2026-02-14 12:14 | 27.66978 | 86.70138 | 10122 ft | 121 kts | 31° |
| 2026-02-14 12:14 | 27.67529 | 86.70766 | 9742 ft | 107 kts | 50° |
| 2026-02-14 12:14 | 27.67935 | 86.71435 | 9405 ft | 102 kts | 57° |
| 2026-02-14 12:14 | 27.68275 | 86.72130 | 9325 ft | 94 kts | 58° |
| 2026-02-14 12:15 | 27.68562 | 86.72723 | 9201 ft | 77 kts | 52° |
| 2026-02-14 12:15 | 27.68742 | 86.73060 | 9380 ft | 23 kts | 63° |
| 2026-02-14 12:15 | 27.68766 | 86.73167 | 9404 ft | 14 kts | 156° |
| 2026-02-14 12:15 | 27.68745 | 86.73190 | 9404 ft | 6 kts | 12° |
| 2026-02-14 12:16 | 27.68777 | 86.73139 | 9403 ft | 13 kts | 252° |
| 2026-02-14 12:16 | 27.68708 | 86.73006 | 9337 ft | 62 kts | 242° |
| 2026-02-14 12:16 | 27.68350 | 86.72373 | 9271 ft | 107 kts | 230° |
| 2026-02-14 12:16 | 27.67670 | 86.71978 | 9274 ft | 123 kts | 186° |
| 2026-02-14 12:17 | 27.66030 | 86.71339 | 9641 ft | 127 kts | 235° |
| 2026-02-14 12:17 | 27.65829 | 86.70427 | 9962 ft | 119 kts | 281° |
| 2026-02-14 12:17 | 27.66341 | 86.69803 | 10319 ft | 110 kts | 345° |
| 2026-02-14 12:18 | 27.67112 | 86.70130 | 10267 ft | 137 kts | 41° |
| 2026-02-14 12:18 | 27.67695 | 86.70959 | 9838 ft | 128 kts | 55° |
| 2026-02-14 12:18 | 27.68083 | 86.71712 | 9585 ft | 100 kts | 59° |
| 2026-02-14 12:18 | 27.68408 | 86.72385 | 9343 ft | 97 kts | 58° |
| 2026-02-14 12:19 | 27.68915 | 86.73194 | 10056 ft | 140 kts | 43° |
| 2026-02-14 12:19 | 27.69031 | 86.73879 | 10709 ft | 97 kts | 135° |
| 2026-02-14 12:19 | 27.68257 | 86.74056 | 10748 ft | 135 kts | 189° |
| 2026-02-14 12:19 | 27.67388 | 86.73548 | 10783 ft | 140 kts | 225° |
| 2026-02-14 12:20 | 27.66816 | 86.72740 | 10562 ft | 130 kts | 235° |
| 2026-02-14 12:20 | 27.66541 | 86.71840 | 10417 ft | 116 kts | 267° |
| 2026-02-14 12:20 | 27.66792 | 86.71080 | 10505 ft | 104 kts | 311° |
| 2026-02-14 12:20 | 27.67442 | 86.70669 | 10417 ft | 110 kts | 349° |
| 2026-02-14 12:21 | 27.68233 | 86.71712 | 9614 ft | 111 kts | 91° |
| 2026-02-14 12:21 | 27.68424 | 86.72490 | 9273 ft | 97 kts | 50° |
| 2026-02-14 12:21 | 27.68719 | 86.73006 | 9341 ft | 52 kts | 66° |
| 2026-02-14 12:22 | 27.68740 | 86.73056 | 9368 ft | 0 kts | 53° |